Time;durP1;ratioP1;P1;durP2;ratioP2;P2;SDS_P1;SDS_P2;PMS_P1;PMS_P2;Temp;Humidity;BMP_temperature;BMP_pressure;BME280_temperature;BME280_humidity;BME280_pressure;Samples;Min_cycle;Max_cycle;Signal;HPM_P1;HPM_P2
2023/01/05 00:00:20;;;;;;;;;;;;;;;13.42;76.55;101184.25;1051937;28;1651;-77
2023/01/05 00:01:11;;;;;;;;;;;;;;;13.42;77.04;101192.28;1048871;28;641;-77
2023/01/05 00:02:01;;;;;;;;;;;;;;;13.42;76.70;101196.78;1044871;28;685;-78
2023/01/05 00:02:52;;;;;;;;;;;;;;;13.42;77.09;101194.97;1047603;28;669;-77
2023/01/05 00:03:42;;;;;;;;;;;;;;;13.42;76.54;101192.28;1053050;28;629;-77
2023/01/05 00:04:33;;;;;;;;;;;;;;;13.42;77.16;101197.63;1052334;28;668;-77
2023/01/05 00:05:23;;;;;;;;;;;;;;;13.42;76.98;101208.34;1053746;28;636;-77
2023/01/05 00:06:13;;;;;;;;;;;;;;;13.42;76.76;101208.34;1052265;28;696;-77
2023/01/05 00:07:04;;;;;;;;;;;;;;;13.41;77.36;101212.00;1052536;28;700;-77
2023/01/05 00:07:54;;;;;;;;;;;;;;;13.42;77.08;101202.13;1052139;28;1205;-77
2023/01/05 00:08:45;;;;;;;;;;;;;;;13.41;76.81;101209.31;1049378;28;1914;-77
2023/01/05 00:09:37;;;;;;;;;;;;;;;13.41;77.19;101201.28;1052045;28;1230;-79
2023/01/05 00:23:09;;;;;;;;;;;;;;;13.43;77.15;101203.84;1049878;28;675;-78
2023/01/05 00:23:59;;;;;;;;;;;;;;;13.42;76.48;101208.34;1052609;28;711;-79
2023/01/05 00:24:49;;;;;;;;;;;;;;;13.42;77.07;101211.03;1049199;28;1096;-78
2023/01/05 00:25:40;;;;;;;;;;;;;;;13.42;76.61;101203.00;1048492;28;652;-79
2023/01/05 00:26:30;;;;;;;;;;;;;;;13.41;76.73;101214.66;1052601;28;657;-79
2023/01/05 00:27:21;;;;;;;;;;;;;;;13.41;76.72;101220.03;1052859;28;1119;-79
2023/01/05 00:28:11;;;;;;;;;;;;;;;13.41;76.52;101200.44;1052477;28;1068;-79
2023/01/05 00:29:02;;;;;;;;;;;;;;;13.40;77.08;101212.94;1050679;28;1020;-79
2023/01/05 00:29:52;;;;;;;;;;;;;;;13.40;77.02;101204.06;1052417;28;786;-79
2023/01/05 00:30:42;;;;;;;;;;;;;;;13.40;76.93;101204.91;1052247;28;700;-78
2023/01/05 00:31:33;;;;;;;;;;;;;;;13.40;76.74;101199.56;1051346;28;1024;-78
2023/01/05 00:32:23;;;;;;;;;;;;;;;13.39;77.34;101213.91;1052216;28;750;-78
2023/01/05 00:33:14;;;;;;;;;;;;;;;13.40;76.95;101207.59;1046500;28;1294;-78
2023/01/05 00:34:04;;;;;;;;;;;;;;;13.40;77.00;101199.56;1049609;28;692;-78
2023/01/05 00:34:55;;;;;;;;;;;;;;;13.39;76.38;101203.22;1050290;28;1103;-79
2023/01/05 00:35:45;;;;;;;;;;;;;;;13.41;76.64;101197.75;1048931;28;711;-78
2023/01/05 00:36:36;;;;;;;;;;;;;;;13.40;77.21;101202.25;1046255;28;1099;-78
2023/01/05 00:37:26;;;;;;;;;;;;;;;13.40;76.64;101196.88;1053324;28;714;-77
2023/01/05 00:38:17;;;;;;;;;;;;;;;13.40;76.69;101212.09;1052066;28;1484;-77
2023/01/05 00:39:07;;;;;;;;;;;;;;;13.41;76.83;101200.44;1046010;28;940;-77
2023/01/05 00:39:57;;;;;;;;;;;;;;;13.40;76.52;101198.72;1048884;28;653;-78
2023/01/05 00:40:48;;;;;;;;;;;;;;;13.39;77.04;101211.25;1052845;28;932;-76
2023/01/05 00:41:38;;;;;;;;;;;;;;;13.40;76.62;101202.25;1052126;28;707;-77
2023/01/05 00:42:29;;;;;;;;;;;;;;;13.40;77.09;101220.97;1052027;28;945;-77
2023/01/05 00:43:19;;;;;;;;;;;;;;;13.40;77.19;101214.78;1052496;28;629;-78
2023/01/05 00:44:10;;;;;;;;;;;;;;;13.40;77.21;101218.31;1052196;28;698;-77
2023/01/05 00:45:00;;;;;;;;;;;;;;;13.39;76.73;101205.88;1052307;28;1019;-77
2023/01/05 00:45:50;;;;;;;;;;;;;;;13.38;76.97;101209.53;1052682;28;777;-78
2023/01/05 00:46:41;;;;;;;;;;;;;;;13.39;77.18;101219.28;1052317;28;652;-77
2023/01/05 00:47:31;;;;;;;;;;;;;;;13.39;76.61;101215.72;1053108;28;1080;-78
2023/01/05 00:48:22;;;;;;;;;;;;;;;13.40;76.43;101222.81;1051941;28;1762;-77
2023/01/05 00:49:12;;;;;;;;;;;;;;;13.40;76.98;101220.13;1048249;28;633;-77
2023/01/05 00:50:02;;;;;;;;;;;;;;;13.39;76.66;101219.28;1048822;28;1123;-77
2023/01/05 00:50:53;;;;;;;;;;;;;;;13.38;76.78;101222.91;1048642;28;644;-78
2023/01/05 00:51:43;;;;;;;;;;;;;;;13.39;77.15;101218.41;1048503;28;618;-78
2023/01/05 00:52:34;;;;;;;;;;;;;;;13.38;76.75;101217.56;1047987;28;645;-78
2023/01/05 00:53:24;;;;;;;;;;;;;;;13.39;76.82;101221.94;1052033;28;1268;-78
2023/01/05 00:54:15;;;;;;;;;;;;;;;13.40;76.78;101225.47;1048372;28;1205;-76
2023/01/05 00:55:05;;;;;;;;;;;;;;;13.39;76.85;101213.91;1050924;28;1194;-78
2023/01/05 00:55:55;;;;;;;;;;;;;;;13.40;77.22;101220.13;1052145;28;737;-78
2023/01/05 00:56:48;;;;;;;;;;;;;;;13.40;77.25;101220.13;1052074;28;1150;-80
2023/01/05 00:57:38;;;;;;;;;;;;;;;13.40;76.89;101238.88;1053310;28;730;-80
2023/01/05 00:58:29;;;;;;;;;;;;;;;13.39;77.34;101235.31;1051253;28;1509;-78
2023/01/05 00:59:19;;;;;;;;;;;;;;;13.39;77.54;101224.63;1051948;28;641;-81
2023/01/05 01:00:09;;;;;;;;;;;;;;;13.38;77.16;101228.25;1051610;28;1329;-81
2023/01/05 01:01:00;;;;;;;;;;;;;;;13.39;77.57;101227.31;1052253;28;692;-80
2023/01/05 01:01:50;;;;;;;;;;;;;;;13.39;77.31;101235.31;1049874;28;969;-80
2023/01/05 01:02:41;;;;;;;;;;;;;;;13.39;76.95;101231.78;1048512;28;661;-80
2023/01/05 01:03:31;;;;;;;;;;;;;;;13.38;77.34;101235.44;1051927;28;837;-79
2023/01/05 01:04:22;;;;;;;;;;;;;;;13.37;76.76;101231.91;1052097;28;621;-80
2023/01/05 01:05:12;;;;;;;;;;;;;;;13.37;77.24;101239.06;1052339;28;696;-80
2023/01/05 01:06:03;;;;;;;;;;;;;;;13.37;77.31;101237.25;1051971;28;1143;-79
2023/01/05 01:06:53;;;;;;;;;;;;;;;13.37;77.28;101231.91;1048152;28;630;-80
2023/01/05 01:07:43;;;;;;;;;;;;;;;13.38;76.78;101236.28;1051754;28;1198;-79
2023/01/05 01:08:34;;;;;;;;;;;;;;;13.37;77.15;101237.25;1050493;28;1965;-80
2023/01/05 01:09:24;;;;;;;;;;;;;;;13.37;77.50;101236.41;1052335;28;1199;-78
2023/01/05 01:10:15;;;;;;;;;;;;;;;13.36;76.94;101240.03;1049137;28;1581;-78
2023/01/05 01:11:05;;;;;;;;;;;;;;;13.36;77.09;101238.22;1049781;28;992;-78
2023/01/05 01:11:56;;;;;;;;;;;;;;;13.36;77.33;101240.03;1052146;28;681;-79
2023/01/05 01:12:46;;;;;;;;;;;;;;;13.35;77.42;101236.50;1052115;28;1198;-78
2023/01/05 01:13:39;;;;;;;;;;;;;;;13.36;77.37;101243.56;1051992;28;645;-78
2023/01/05 01:14:30;;;;;;;;;;;;;;;13.36;77.45;101235.53;1050409;28;984;-79
2023/01/05 01:15:20;;;;;;;;;;;;;;;13.36;76.92;101240.91;1052376;28;625;-78
2023/01/05 01:16:11;;;;;;;;;;;;;;;13.36;77.69;101240.03;1051941;28;1150;-78
2023/01/05 01:17:01;;;;;;;;;;;;;;;13.37;77.02;101239.94;1052264;28;610;-78
2023/01/05 01:17:51;;;;;;;;;;;;;;;13.37;76.93;101245.28;1048432;28;749;-78
2023/01/05 01:18:42;;;;;;;;;;;;;;;13.36;76.89;101250.75;1051570;28;1037;-79
2023/01/05 01:19:32;;;;;;;;;;;;;;;13.37;76.81;101256.00;1052468;28;865;-79
2023/01/05 01:20:23;;;;;;;;;;;;;;;13.38;77.07;101249.69;1052159;28;625;-78
2023/01/05 01:21:13;;;;;;;;;;;;;;;13.38;76.92;101255.03;1048649;28;625;-79
2023/01/05 01:22:04;;;;;;;;;;;;;;;13.37;76.86;101247.09;1048433;28;811;-79
2023/01/05 01:22:55;;;;;;;;;;;;;;;13.37;76.86;101256.00;1049840;28;1150;-78
2023/01/05 01:23:45;;;;;;;;;;;;;;;13.37;76.92;101255.13;1051906;28;618;-78
2023/01/05 01:24:36;;;;;;;;;;;;;;;13.37;77.43;101257.81;1049745;28;1107;-79
2023/01/05 01:25:26;;;;;;;;;;;;;;;13.35;77.37;101259.75;1051970;28;617;-79
2023/01/05 01:26:17;;;;;;;;;;;;;;;13.35;76.93;101255.25;1048499;28;696;-79
2023/01/05 01:27:07;;;;;;;;;;;;;;;13.36;77.71;101256.09;1049188;28;725;-78
2023/01/05 01:27:58;;;;;;;;;;;;;;;13.35;76.68;101249.88;1049026;28;617;-79
2023/01/05 01:28:48;;;;;;;;;;;;;;;13.36;77.45;101253.41;1050302;28;1949;-78
2023/01/05 01:29:38;;;;;;;;;;;;;;;13.36;77.00;101256.94;1051808;28;1119;-77
2023/01/05 01:30:29;;;;;;;;;;;;;;;13.36;77.32;101264.97;1052105;28;733;-78
2023/01/05 01:31:19;;;;;;;;;;;;;;;13.37;77.31;101258.66;1051809;28;1170;-78
2023/01/05 01:32:10;;;;;;;;;;;;;;;13.36;77.32;101273.00;1051993;28;899;-78
2023/01/05 01:33:00;;;;;;;;;;;;;;;13.37;77.06;101265.84;1052232;28;649;-78
2023/01/05 01:33:51;;;;;;;;;;;;;;;13.37;77.31;101266.69;1051884;28;654;-78
2023/01/05 01:34:41;;;;;;;;;;;;;;;13.36;77.09;101278.38;1052174;28;717;-78
2023/01/05 01:35:31;;;;;;;;;;;;;;;13.36;77.25;101270.34;1048363;28;698;-77
2023/01/05 01:36:22;;;;;;;;;;;;;;;13.36;77.30;101267.66;1049062;28;657;-77
2023/01/05 01:37:12;;;;;;;;;;;;;;;13.36;77.21;101259.63;1048952;28;680;-78
2023/01/05 01:38:03;;;;;;;;;;;;;;;13.37;77.13;101269.38;1049059;28;668;-77
2023/01/05 01:38:53;;;;;;;;;;;;;;;13.36;76.79;101267.66;1049676;28;672;-78
2023/01/05 01:39:44;;;;;;;;;;;;;;;13.36;77.33;101273.00;1047751;28;626;-78
2023/01/05 01:40:34;;;;;;;;;;;;;;;13.36;76.93;101269.47;1051762;28;1105;-78
2023/01/05 01:41:24;;;;;;;;;;;;;;;13.34;76.72;101274.94;1051990;28;625;-78
2023/01/05 01:42:15;;;;;;;;;;;;;;;13.35;76.71;101276.66;1052060;28;650;-77
2023/01/05 01:43:05;;;;;;;;;;;;;;;13.34;77.19;101277.63;1052506;28;749;-78
2023/01/05 01:43:56;;;;;;;;;;;;;;;13.33;76.52;101275.91;1052019;28;696;-78
2023/01/05 01:44:47;;;;;;;;;;;;;;;13.34;77.18;101285.66;1052561;28;964;-78
2023/01/05 01:45:37;;;;;;;;;;;;;;;13.34;77.07;101282.97;1052181;28;723;-78
2023/01/05 01:46:27;;;;;;;;;;;;;;;13.33;77.43;101281.25;1049739;28;886;-78
2023/01/05 01:47:18;;;;;;;;;;;;;;;13.34;76.77;101282.97;1052202;28;660;-77
2023/01/05 01:48:09;;;;;;;;;;;;;;;13.34;77.54;101284.78;1052209;28;690;-78
2023/01/05 01:48:59;;;;;;;;;;;;;;;13.34;77.29;101274.09;1052015;28;1905;-78
2023/01/05 01:49:49;;;;;;;;;;;;;;;13.32;76.80;101287.56;1052394;28;1008;-78
2023/01/05 01:50:40;;;;;;;;;;;;;;;13.32;77.27;101276.00;1052027;28;908;-78
2023/01/05 01:51:30;;;;;;;;;;;;;;;13.32;76.81;101279.53;1051970;28;698;-78
2023/01/05 01:52:21;;;;;;;;;;;;;;;13.32;77.52;101276.00;1051830;28;1182;-78
2023/01/05 01:53:11;;;;;;;;;;;;;;;13.32;77.36;101276.88;1048564;28;621;-79
2023/01/05 01:54:02;;;;;;;;;;;;;;;13.32;77.32;101274.19;1049856;28;1202;-79
2023/01/05 01:54:52;;;;;;;;;;;;;;;13.33;76.79;101283.94;1048444;28;692;-79
2023/01/05 01:55:43;;;;;;;;;;;;;;;13.32;77.16;101276.00;1048389;28;1691;-79
2023/01/05 01:56:33;;;;;;;;;;;;;;;13.32;76.91;101278.69;1048505;28;641;-79
2023/01/05 01:57:24;;;;;;;;;;;;;;;13.32;77.22;101281.34;1047708;28;745;-78
2023/01/05 01:58:14;;;;;;;;;;;;;;;13.32;76.94;101279.53;1051958;28;1073;-81
2023/01/05 01:59:04;;;;;;;;;;;;;;;13.32;77.21;101287.56;1051792;28;688;-80
2023/01/05 01:59:55;;;;;;;;;;;;;;;13.31;77.34;101274.28;1052052;28;744;-80
2023/01/05 02:00:45;;;;;;;;;;;;;;;13.30;76.88;101284.13;1052225;28;1178;-80
2023/01/05 02:01:36;;;;;;;;;;;;;;;13.30;77.37;101280.59;1051946;28;668;-80
2023/01/05 02:02:26;;;;;;;;;;;;;;;13.29;77.29;101282.41;1052049;28;846;-79
2023/01/05 02:03:17;;;;;;;;;;;;;;;13.28;76.82;101275.34;1051881;28;641;-79
2023/01/05 02:04:07;;;;;;;;;;;;;;;13.30;77.37;101299.34;1048114;28;1391;-79
2023/01/05 02:04:57;;;;;;;;;;;;;;;13.30;77.25;101286.81;1046992;28;977;-80
2023/01/05 02:05:48;;;;;;;;;;;;;;;13.32;76.80;101284.91;1053035;28;674;-80
2023/01/05 02:06:38;;;;;;;;;;;;;;;13.32;77.26;101284.91;1052064;28;1146;-80
2023/01/05 02:07:29;;;;;;;;;;;;;;;13.32;77.21;101281.34;1051859;28;815;-80
2023/01/05 02:08:24;;;;;;;;;;;;;;;13.32;77.22;101273.31;1051978;28;1237;-81
2023/01/05 02:09:14;;;;;;;;;;;;;;;13.30;77.23;101289.50;1048832;28;679;-81
2023/01/05 02:10:05;;;;;;;;;;;;;;;13.31;77.54;101280.50;1049954;28;1190;-81
2023/01/05 02:10:55;;;;;;;;;;;;;;;13.32;77.22;101281.34;1048565;28;685;-81
2023/01/05 02:11:46;;;;;;;;;;;;;;;13.32;77.47;101278.69;1047685;28;673;-80
2023/01/05 02:12:36;;;;;;;;;;;;;;;13.31;77.59;101288.53;1048817;28;747;-81
2023/01/05 02:13:26;;;;;;;;;;;;;;;13.30;76.93;101284.13;1047813;28;1293;-80
2023/01/05 02:14:17;;;;;;;;;;;;;;;13.31;77.43;101285.00;1046103;28;1754;-80
2023/01/05 02:15:07;;;;;;;;;;;;;;;13.31;77.10;101282.31;1053113;28;609;-79
2023/01/05 02:15:58;;;;;;;;;;;;;;;13.31;77.37;101288.53;1048892;28;691;-80
2023/01/05 02:16:48;;;;;;;;;;;;;;;13.32;77.37;101281.34;1050717;28;1024;-79
2023/01/05 02:17:39;;;;;;;;;;;;;;;13.31;77.47;101285.00;1051589;28;1174;-79
2023/01/05 02:18:29;;;;;;;;;;;;;;;13.32;77.31;101286.72;1052010;28;731;-79
2023/01/05 02:19:19;;;;;;;;;;;;;;;13.31;77.40;101307.28;1051301;28;602;-79
2023/01/05 02:20:10;;;;;;;;;;;;;;;13.32;77.00;101289.38;1051856;28;838;-79
2023/01/05 02:21:00;;;;;;;;;;;;;;;13.32;77.18;101295.59;1052144;28;618;-80
2023/01/05 02:21:51;;;;;;;;;;;;;;;13.31;76.88;101285.84;1051790;28;664;-79
2023/01/05 02:22:41;;;;;;;;;;;;;;;13.31;76.97;101295.69;1052062;28;637;-79
2023/01/05 02:23:32;;;;;;;;;;;;;;;13.30;76.80;101302.88;1051767;28;716;-81
2023/01/05 02:24:22;;;;;;;;;;;;;;;13.32;76.96;101308.97;1051663;28;1592;-81
2023/01/05 02:25:12;;;;;;;;;;;;;;;13.30;76.98;101289.50;1052139;28;1281;-81
2023/01/05 02:26:03;;;;;;;;;;;;;;;13.31;76.82;101283.19;1051893;28;626;-81
2023/01/05 02:26:53;;;;;;;;;;;;;;;13.32;77.43;101292.94;1048398;28;829;-81
2023/01/05 02:27:44;;;;;;;;;;;;;;;13.30;77.53;101284.13;1047176;28;1136;-81
2023/01/05 02:28:34;;;;;;;;;;;;;;;13.31;76.91;101301.06;1044445;28;634;-80
2023/01/05 02:29:25;;;;;;;;;;;;;;;13.31;77.16;101287.69;1052152;28;621;-80
2023/01/05 02:30:15;;;;;;;;;;;;;;;13.29;77.50;101287.78;1052373;28;1091;-80
2023/01/05 02:31:05;;;;;;;;;;;;;;;13.29;77.02;101295.81;1052186;28;770;-80
2023/01/05 02:31:56;;;;;;;;;;;;;;;13.30;77.18;101294.00;1048344;28;651;-80
2023/01/05 02:32:46;;;;;;;;;;;;;;;13.30;77.02;101294.84;1050096;28;1656;-80
2023/01/05 02:33:37;;;;;;;;;;;;;;;13.30;77.63;101297.53;1047709;28;627;-80
2023/01/05 02:34:27;;;;;;;;;;;;;;;13.30;77.31;101289.50;1051182;28;1147;-78
2023/01/05 02:35:18;;;;;;;;;;;;;;;13.32;76.98;101300.09;1051791;28;657;-78
2023/01/05 02:36:08;;;;;;;;;;;;;;;13.31;77.47;101291.22;1051916;28;911;-79
2023/01/05 02:36:58;;;;;;;;;;;;;;;13.33;77.35;101293.78;1051637;28;645;-78
2023/01/05 02:37:49;;;;;;;;;;;;;;;13.32;76.95;101292.94;1051783;28;1088;-79
2023/01/05 02:38:39;;;;;;;;;;;;;;;13.32;77.36;101303.63;1052613;28;638;-79
2023/01/05 02:39:30;;;;;;;;;;;;;;;13.32;77.34;101298.28;1050203;28;1008;-79
2023/01/05 02:40:20;;;;;;;;;;;;;;;13.33;77.36;101285.75;1052081;28;931;-79
2023/01/05 02:41:11;;;;;;;;;;;;;;;13.33;77.44;101288.44;1051579;28;921;-79
2023/01/05 02:42:01;;;;;;;;;;;;;;;13.31;77.01;101296.56;1052013;28;712;-79
2023/01/05 02:42:51;;;;;;;;;;;;;;;13.32;77.37;101300.94;1051384;28;1580;-79
2023/01/05 02:43:42;;;;;;;;;;;;;;;13.31;77.32;101291.22;1052444;28;652;-79
2023/01/05 02:44:32;;;;;;;;;;;;;;;13.34;77.21;101308.88;1048389;28;658;-79
2023/01/05 02:45:23;;;;;;;;;;;;;;;13.33;76.90;101299.13;1048238;28;630;-79
2023/01/05 02:46:13;;;;;;;;;;;;;;;13.33;77.44;101310.69;1048380;28;645;-79
2023/01/05 02:47:04;;;;;;;;;;;;;;;13.33;77.41;101316.06;1049335;28;1112;-78
2023/01/05 02:47:54;;;;;;;;;;;;;;;13.33;77.35;101294.63;1048320;28;593;-80
2023/01/05 02:48:44;;;;;;;;;;;;;;;13.33;76.97;101310.69;1049528;28;1959;-79
2023/01/05 02:49:35;;;;;;;;;;;;;;;13.34;76.87;101316.91;1048204;28;641;-79
2023/01/05 02:50:25;;;;;;;;;;;;;;;13.34;77.27;101307.06;1051424;28;1424;-79
2023/01/05 02:51:16;;;;;;;;;;;;;;;13.32;77.07;101314.34;1048177;28;669;-79
2023/01/05 02:52:06;;;;;;;;;;;;;;;13.33;77.33;101312.50;1049783;28;1159;-78
2023/01/05 02:52:57;;;;;;;;;;;;;;;13.32;77.34;101314.34;1051690;28;598;-78
2023/01/05 02:53:47;;;;;;;;;;;;;;;13.32;77.37;101308.13;1051848;28;689;-77
2023/01/05 02:54:38;;;;;;;;;;;;;;;13.32;76.89;101311.66;1051390;28;1279;-78
2023/01/05 02:55:28;;;;;;;;;;;;;;;13.32;77.14;101317.00;1051829;28;773;-78
2023/01/05 02:56:18;;;;;;;;;;;;;;;13.32;77.38;101314.34;1052739;28;1229;-79
2023/01/05 02:57:09;;;;;;;;;;;;;;;13.32;77.47;101316.16;1051779;28;725;-79
2023/01/05 02:57:59;;;;;;;;;;;;;;;13.32;76.76;101308.97;1051872;28;1162;-79
2023/01/05 02:58:50;;;;;;;;;;;;;;;13.33;77.42;101316.06;1051737;28;698;-78
2023/01/05 02:59:40;;;;;;;;;;;;;;;13.33;76.84;101310.69;1052079;28;657;-78
2023/01/05 03:00:31;;;;;;;;;;;;;;;13.32;77.30;101313.47;1047062;28;1629;-79
2023/01/05 03:01:21;;;;;;;;;;;;;;;13.34;77.40;101311.56;1044833;28;1250;-79
2023/01/05 03:02:11;;;;;;;;;;;;;;;13.33;77.38;101316.06;1050631;28;1113;-79
2023/01/05 03:03:02;;;;;;;;;;;;;;;13.33;76.79;101315.19;1051952;28;677;-78
2023/01/05 03:03:52;;;;;;;;;;;;;;;13.33;77.02;101316.06;1052490;28;636;-79
2023/01/05 03:04:43;;;;;;;;;;;;;;;13.33;77.02;101316.06;1052379;28;677;-78
2023/01/05 03:05:33;;;;;;;;;;;;;;;13.34;76.87;101316.91;1052496;28;723;-78
2023/01/05 03:06:24;;;;;;;;;;;;;;;13.31;76.90;101312.63;1052257;28;1229;-79
2023/01/05 03:07:14;;;;;;;;;;;;;;;13.33;76.87;101315.19;1048299;28;784;-79
2023/01/05 03:08:07;;;;;;;;;;;;;;;13.32;77.36;101318.84;1048879;28;862;-79
2023/01/05 03:08:58;;;;;;;;;;;;;;;13.31;76.79;101320.66;1051598;28;1973;-79
2023/01/05 03:09:48;;;;;;;;;;;;;;;13.31;77.38;101323.31;1051912;28;698;-79
2023/01/05 03:14:06;;;;;;;;;;;;;;;13.31;76.69;101317.13;1052521;28;625;-81
2023/01/05 03:14:57;;;;;;;;;;;;;;;13.30;77.41;101318.94;1052585;28;637;-80
2023/01/05 03:15:47;;;;;;;;;;;;;;;13.32;76.66;101314.34;1051765;28;1198;-79
2023/01/05 03:16:38;;;;;;;;;;;;;;;13.32;76.87;101314.34;1048448;28;617;-80
2023/01/05 03:17:29;;;;;;;;;;;;;;;13.31;76.86;101317.97;1051826;28;1171;-78
2023/01/05 03:18:19;;;;;;;;;;;;;;;13.31;76.86;101309.94;1049052;28;630;-78
2023/01/05 03:20:19;;;;;;;;;;;;;;;13.31;77.22;101320.66;1050610;28;1564;-80
2023/01/05 03:21:09;;;;;;;;;;;;;;;13.31;77.50;101311.75;1053166;28;713;-80
2023/01/05 03:35:50;;;;;;;;;;;;;;;13.30;76.86;101326.09;1049492;28;1084;-80
2023/01/05 03:36:40;;;;;;;;;;;;;;;13.30;76.91;101335.00;1049546;28;652;-80
2023/01/05 03:37:31;;;;;;;;;;;;;;;13.29;77.24;101330.59;1048780;28;716;-80
2023/01/05 03:38:21;;;;;;;;;;;;;;;13.29;76.83;101327.94;1052533;28;660;-80
2023/01/05 03:39:11;;;;;;;;;;;;;;;13.29;76.81;101327.94;1049433;28;806;-80
2023/01/05 03:40:02;;;;;;;;;;;;;;;13.30;77.30;101337.66;1048869;28;646;-80
2023/01/05 03:40:52;;;;;;;;;;;;;;;13.28;77.09;101334.25;1049384;28;977;-80
2023/01/05 03:41:43;;;;;;;;;;;;;;;13.30;77.15;101343.03;1049074;28;702;-80
2023/01/05 03:42:33;;;;;;;;;;;;;;;13.29;77.09;101335.97;1049836;28;675;-80
2023/01/05 03:43:24;;;;;;;;;;;;;;;13.31;76.54;101333.19;1053506;28;805;-80
2023/01/05 03:44:14;;;;;;;;;;;;;;;13.29;77.17;101335.97;1052462;28;677;-80
2023/01/05 03:45:04;;;;;;;;;;;;;;;13.30;76.90;101337.66;1052755;28;672;-80
2023/01/05 03:45:55;;;;;;;;;;;;;;;13.30;76.64;101328.78;1052258;28;1101;-80
2023/01/05 03:46:45;;;;;;;;;;;;;;;13.29;76.64;101324.38;1052651;28;707;-80
2023/01/05 03:47:36;;;;;;;;;;;;;;;13.30;76.75;101331.47;1052290;28;649;-80
2023/01/05 03:48:26;;;;;;;;;;;;;;;13.30;77.22;101334.13;1053089;28;718;-80
2023/01/05 03:49:17;;;;;;;;;;;;;;;13.29;77.03;101330.59;1049096;28;581;-80
2023/01/05 03:50:07;;;;;;;;;;;;;;;13.28;76.70;101342.28;1047956;28;736;-80
2023/01/05 03:50:57;;;;;;;;;;;;;;;13.30;77.59;101336.81;1053102;28;684;-80
2023/01/05 03:51:48;;;;;;;;;;;;;;;13.30;77.31;101339.50;1048810;28;617;-78
2023/01/05 03:52:38;;;;;;;;;;;;;;;13.30;76.72;101336.81;1049061;28;727;-80
2023/01/05 03:53:29;;;;;;;;;;;;;;;13.30;77.45;101335.00;1048431;28;1041;-80
2023/01/05 03:54:19;;;;;;;;;;;;;;;13.29;77.27;101330.59;1052449;28;1102;-80
2023/01/05 03:55:10;;;;;;;;;;;;;;;13.30;76.67;101348.38;1049072;28;648;-79
2023/01/05 03:56:00;;;;;;;;;;;;;;;13.30;77.34;101343.03;1048845;28;617;-78
2023/01/05 03:56:50;;;;;;;;;;;;;;;13.30;77.36;101343.03;1051714;28;1096;-78
2023/01/05 03:57:41;;;;;;;;;;;;;;;13.31;77.31;101333.19;1052217;28;971;-79
2023/01/05 03:58:31;;;;;;;;;;;;;;;13.31;77.28;101342.06;1052539;28;660;-78
2023/01/05 03:59:22;;;;;;;;;;;;;;;13.31;76.81;101336.72;1052926;28;735;-77
2023/01/05 04:00:12;;;;;;;;;;;;;;;13.31;77.14;101344.75;1052335;28;1544;-78
2023/01/05 04:01:02;;;;;;;;;;;;;;;13.30;77.13;101345.69;1051431;28;1028;-79
2023/01/05 04:01:53;;;;;;;;;;;;;;;13.29;77.11;101341.31;1052899;28;683;-78
2023/01/05 04:02:43;;;;;;;;;;;;;;;13.30;77.01;101340.34;1052465;28;693;-78
2023/01/05 04:03:34;;;;;;;;;;;;;;;13.29;77.21;101341.31;1049347;28;672;-78
2023/01/05 04:04:24;;;;;;;;;;;;;;;13.30;77.08;101331.47;1051143;28;1090;-78
2023/01/05 04:05:15;;;;;;;;;;;;;;;13.30;77.21;101342.16;1052249;28;629;-78
2023/01/05 04:06:05;;;;;;;;;;;;;;;13.28;77.49;101339.59;1052225;28;1007;-79
2023/01/05 04:06:55;;;;;;;;;;;;;;;13.27;76.87;101332.53;1049494;28;696;-79
2023/01/05 04:07:46;;;;;;;;;;;;;;;13.29;76.72;101335.09;1048758;28;652;-79
2023/01/05 04:08:36;;;;;;;;;;;;;;;13.28;76.59;101328.88;1044989;28;708;-79
2023/01/05 04:09:27;;;;;;;;;;;;;;;13.27;76.94;101337.88;1051110;28;1099;-79
2023/01/05 04:10:17;;;;;;;;;;;;;;;13.27;77.50;101332.53;1052354;28;1619;-79
2023/01/05 04:11:08;;;;;;;;;;;;;;;13.28;77.19;101330.69;1049571;28;1064;-79
2023/01/05 04:11:58;;;;;;;;;;;;;;;13.26;76.90;101336.16;1052372;28;633;-79
2023/01/05 04:12:48;;;;;;;;;;;;;;;13.27;76.82;101337.88;1052581;28;645;-79
2023/01/05 04:13:39;;;;;;;;;;;;;;;13.28;77.40;101339.59;1052272;28;780;-79
2023/01/05 04:14:29;;;;;;;;;;;;;;;13.28;77.33;101344.09;1052360;28;1190;-79
2023/01/05 04:15:20;;;;;;;;;;;;;;;13.28;77.21;101336.06;1051955;28;686;-79
2023/01/05 04:16:11;;;;;;;;;;;;;;;13.29;77.26;101340.44;1053170;28;1186;-79
2023/01/05 04:17:02;;;;;;;;;;;;;;;13.28;76.70;101336.06;1052148;28;766;-80
2023/01/05 04:17:52;;;;;;;;;;;;;;;13.27;77.17;101337.88;1052230;28;1229;-81
2023/01/05 04:18:43;;;;;;;;;;;;;;;13.28;76.93;101331.56;1052760;28;725;-78
2023/01/05 04:19:33;;;;;;;;;;;;;;;13.29;77.16;101327.94;1052322;28;640;-80
2023/01/05 04:20:23;;;;;;;;;;;;;;;13.29;76.91;101329.75;1052764;28;1426;-79
2023/01/05 04:21:14;;;;;;;;;;;;;;;13.29;77.37;101338.63;1049284;28;673;-78
2023/01/05 04:22:04;;;;;;;;;;;;;;;13.28;76.72;101338.72;1052899;28;753;-78
2023/01/05 04:22:55;;;;;;;;;;;;;;;13.28;76.78;101336.91;1048589;28;638;-79
2023/01/05 04:23:45;;;;;;;;;;;;;;;13.27;76.89;101334.34;1052208;28;1072;-78
2023/01/05 04:24:36;;;;;;;;;;;;;;;13.28;76.91;101334.25;1052792;28;758;-78
2023/01/05 04:25:26;;;;;;;;;;;;;;;13.26;76.75;101336.16;1048749;28;653;-78
2023/01/05 04:26:16;;;;;;;;;;;;;;;13.27;76.96;101337.88;1050423;28;1155;-78
2023/01/05 04:27:07;;;;;;;;;;;;;;;13.27;76.86;101331.66;1048486;28;692;-78
2023/01/05 04:27:57;;;;;;;;;;;;;;;13.28;77.10;101338.72;1048875;28;731;-78
2023/01/05 04:28:48;;;;;;;;;;;;;;;13.26;76.97;101336.16;1047941;28;1909;-77
2023/01/05 04:29:38;;;;;;;;;;;;;;;13.25;77.12;101337.16;1048417;28;653;-77
2023/01/05 04:30:29;;;;;;;;;;;;;;;13.26;77.21;101337.97;1051498;28;1432;-77
2023/01/05 04:31:19;;;;;;;;;;;;;;;13.26;77.38;101338.84;1052698;28;706;-77
2023/01/05 04:32:10;;;;;;;;;;;;;;;13.26;76.87;101341.50;1052343;28;1154;-77
2023/01/05 04:33:00;;;;;;;;;;;;;;;13.28;77.18;101349.44;1052226;28;670;-78
2023/01/05 04:33:50;;;;;;;;;;;;;;;13.28;77.63;101344.09;1048867;28;1178;-78
2023/01/05 04:34:41;;;;;;;;;;;;;;;13.28;77.34;101352.97;1049532;28;749;-78
2023/01/05 04:35:31;;;;;;;;;;;;;;;13.28;77.24;101339.59;1052616;28;1111;-78
2023/01/05 04:36:22;;;;;;;;;;;;;;;13.29;77.07;101351.16;1052135;28;714;-78
2023/01/05 04:37:12;;;;;;;;;;;;;;;13.29;76.77;101344.00;1052105;28;1171;-79
2023/01/05 04:38:03;;;;;;;;;;;;;;;13.30;77.40;101348.38;1051960;28;1004;-78
2023/01/05 04:38:53;;;;;;;;;;;;;;;13.28;76.92;101350.31;1052322;28;629;-79
2023/01/05 04:39:43;;;;;;;;;;;;;;;13.28;77.24;101355.66;1052394;28;686;-79
2023/01/05 04:40:34;;;;;;;;;;;;;;;13.28;76.87;101352.97;1051988;28;1509;-78
2023/01/05 04:41:24;;;;;;;;;;;;;;;13.28;77.03;101352.97;1052633;28;1040;-80
2023/01/05 04:42:15;;;;;;;;;;;;;;;13.29;77.31;101360.03;1052078;28;622;-78
2023/01/05 04:43:05;;;;;;;;;;;;;;;13.29;77.24;101357.38;1048664;28;697;-79
2023/01/05 04:43:55;;;;;;;;;;;;;;;13.29;77.26;101361.88;1048722;28;691;-79
2023/01/05 04:44:46;;;;;;;;;;;;;;;13.29;77.25;101361.88;1052147;28;1084;-79
2023/01/05 04:45:36;;;;;;;;;;;;;;;13.28;76.69;101355.66;1052291;28;1126;-79
2023/01/05 04:46:27;;;;;;;;;;;;;;;13.30;76.71;101356.41;1049213;28;641;-78
2023/01/05 04:47:17;;;;;;;;;;;;;;;13.29;76.76;101357.38;1048682;28;685;-78
2023/01/05 04:48:08;;;;;;;;;;;;;;;13.28;76.74;101361.00;1049720;28;735;-79
2023/01/05 04:48:58;;;;;;;;;;;;;;;13.30;76.88;101363.59;1048449;28;1898;-78
2023/01/05 04:49:48;;;;;;;;;;;;;;;13.29;77.29;101360.03;1052382;28;665;-78
2023/01/05 04:50:39;;;;;;;;;;;;;;;13.29;76.89;101362.72;1052484;28;1671;-78
2023/01/05 04:51:29;;;;;;;;;;;;;;;13.27;76.73;101364.63;1052341;28;629;-78
2023/01/05 04:52:20;;;;;;;;;;;;;;;13.28;76.72;101361.00;1047504;28;772;-78
2023/01/05 04:53:10;;;;;;;;;;;;;;;13.29;77.02;101357.38;1049486;28;626;-79
2023/01/05 04:54:01;;;;;;;;;;;;;;;13.28;77.34;101362.81;1053087;28;1154;-78
2023/01/05 04:54:51;;;;;;;;;;;;;;;13.27;77.45;101372.66;1052670;28;1150;-78
2023/01/05 04:55:41;;;;;;;;;;;;;;;13.26;76.91;101368.28;1052366;28;996;-81